Route Details

Aircraft Information
Group: North America Fleet
Types: B738, B752, B762, B763
Route Data
Distance: 309nm
Duration: 1h 25m
Origin METAR: KMCI 171053Z 04006KT 9SM CLR 17/17 A3010 RMK AO2 SLP187 T01720167
Dest. METAR: KRFD 171054Z 00000KT 10SM FEW250 13/11 A3015 RMK AO2 SLP207 T01330111
Freight Data
(for Aug 18, 2022)
Load Factor:
51%
Manifested Cargo: 39,026lbs
Financial History
Total Freight: 507,716lbs
Average Load: 0lbs/flt
Fuel Used: 62,753lbs
Avg. Fuel Used: 0lbs/flt
Fuel Expense: $63,532
Avg. Fuel Expense: $0
Avg. Fuel Cost: $0/lbs
Total Gross Income: $694,322
Pilot Pay: $1,294
Total Expenses: $82,874
Total Revenue: $546,694
Average Revenue: $0

Capitol Logistics 360




KMCI
Kansas City International Airport
Kansas City, Missouri
KRFD
Chicago/Rockford International Airport
Rockford, Illinois

Activity Log

Date Flight Route Aircraft Duration
07/18/2022 CPX360 ROYAL9 BODYN IOW RFD B763 0h 56m
12/17/2020 CPX321 ROYAL9 BODYN IOW RFD B763 1h 09m
02/04/2020 CPX321 ROYAL9 BODYN MZV RFD B763 1h 08m
09/18/2019 CPX321 ROYAL9 BODYN MZV RFD B763 0h 57m
04/14/2019 CPX321 KIVDE V502 IRK J232 MZV B763 1h 12m
04/03/2019 CPX321 ROYAL9 BODYN MZV RFD B763 1h 04m